createdAt,value
2022-10-23T00:01:37.809Z,84.97
2022-10-23T00:04:08.391Z,85.05
2022-10-23T00:06:36.699Z,85.25
2022-10-23T00:09:06.830Z,85.46
2022-10-23T00:11:35.419Z,85.44
2022-10-23T00:14:05.973Z,85.56
2022-10-23T00:16:34.728Z,85.51
2022-10-23T00:19:03.283Z,85.43
2022-10-23T00:21:31.432Z,85.22
2022-10-23T00:23:59.176Z,85.30
2022-10-23T00:26:27.506Z,85.33
2022-10-23T00:28:55.522Z,85.45
2022-10-23T00:31:25.039Z,85.80
2022-10-23T00:33:53.259Z,85.63
2022-10-23T00:36:21.858Z,85.68
2022-10-23T00:38:50.897Z,85.84
2022-10-23T00:41:25.935Z,85.67
2022-10-23T00:44:01.847Z,85.69
2022-10-23T00:46:30.059Z,85.42
2022-10-23T00:48:58.312Z,85.29
2022-10-23T00:51:31.226Z,85.30
2022-10-23T00:54:22.901Z,85.20
2022-10-23T00:56:52.719Z,85.07
2022-10-23T00:59:20.630Z,84.91
2022-10-23T01:01:48.990Z,85.10
2022-10-23T01:04:17.741Z,84.92
2022-10-23T01:06:57.278Z,84.87
2022-10-23T01:09:40.062Z,84.47
2022-10-23T01:12:15.603Z,84.43
2022-10-23T01:14:49.051Z,84.49
2022-10-23T01:17:33.572Z,84.39
2022-10-23T01:20:22.350Z,84.37
2022-10-23T01:23:22.490Z,84.25
2022-10-23T01:26:10.132Z,84.31
2022-10-23T01:28:52.880Z,84.30
2022-10-23T01:31:43.135Z,84.35
2022-10-23T01:34:19.329Z,84.29
2022-10-23T01:36:49.180Z,84.20
2022-10-23T01:39:32.815Z,84.18
2022-10-23T01:42:16.426Z,84.10
2022-10-23T01:44:51.756Z,83.97
2022-10-23T01:47:23.848Z,84.11
2022-10-23T01:49:53.472Z,84.06
2022-10-23T01:52:22.292Z,83.77
2022-10-23T01:54:53.781Z,83.96
2022-10-23T01:57:23.797Z,83.87
2022-10-23T02:00:01.828Z,84.07
2022-10-23T02:02:32.908Z,83.83
2022-10-23T02:05:07.461Z,83.80
2022-10-23T02:07:36.540Z,83.72
2022-10-23T02:10:06.614Z,83.74
2022-10-23T02:12:40.191Z,83.82
2022-10-23T02:15:29.915Z,83.92
2022-10-23T02:18:07.541Z,83.76
2022-10-23T02:20:45.730Z,83.64
2022-10-23T02:23:13.466Z,83.72
2022-10-23T02:26:05.878Z,83.72
2022-10-23T02:28:43.825Z,83.60
2022-10-23T02:31:16.126Z,83.79
2022-10-23T02:33:46.001Z,83.75
2022-10-23T02:36:15.569Z,83.71
2022-10-23T02:38:44.918Z,83.69
2022-10-23T02:41:12.734Z,83.37
2022-10-23T02:43:57.580Z,83.43
2022-10-23T02:46:31.391Z,83.40
2022-10-23T02:49:41.428Z,83.22
2022-10-23T02:52:16.208Z,83.13
2022-10-23T02:54:44.011Z,83.10
2022-10-23T02:57:18.416Z,82.91
2022-10-23T03:00:08.461Z,82.93
2022-10-23T03:02:44.434Z,82.82
2022-10-23T03:05:16.238Z,82.81
2022-10-23T03:07:44.898Z,82.65
2022-10-23T03:10:13.145Z,82.66
2022-10-23T03:12:41.531Z,82.63
2022-10-23T03:15:12.550Z,82.58
2022-10-23T03:17:41.201Z,82.59
2022-10-23T03:20:10.446Z,82.55
2022-10-23T03:22:39.028Z,82.34
2022-10-23T03:25:07.262Z,82.35
2022-10-23T03:27:35.547Z,82.23
2022-10-23T03:30:04.607Z,82.38
2022-10-23T03:32:32.475Z,82.30
2022-10-23T03:35:00.203Z,82.22
2022-10-23T03:37:28.352Z,82.24
2022-10-23T03:39:56.114Z,82.48
2022-10-23T03:42:23.791Z,82.91
2022-10-23T03:44:51.577Z,82.69
2022-10-23T03:47:19.356Z,82.84
2022-10-23T03:49:47.147Z,82.90
2022-10-23T03:52:15.120Z,82.82
2022-10-23T03:54:42.997Z,82.95
2022-10-23T03:57:10.968Z,82.96
2022-10-23T03:59:38.763Z,83.08
2022-10-23T04:02:06.693Z,83.19
2022-10-23T04:04:40.801Z,83.28
2022-10-23T04:07:11.184Z,83.32
2022-10-23T04:09:39.027Z,83.30
2022-10-23T04:12:07.032Z,83.32
2022-10-23T04:14:34.905Z,83.36
2022-10-23T04:17:02.859Z,83.07
2022-10-23T04:19:33.052Z,82.72
2022-10-23T04:22:00.890Z,82.60
2022-10-23T04:24:28.943Z,82.55
2022-10-23T04:26:56.751Z,82.51
2022-10-23T04:29:24.792Z,82.42
2022-10-23T04:31:52.687Z,82.31
2022-10-23T04:34:20.504Z,82.16
2022-10-23T04:36:48.454Z,82.04
2022-10-23T04:39:16.180Z,81.62
2022-10-23T04:41:44.237Z,81.84
2022-10-23T04:44:12.023Z,81.70
2022-10-23T04:46:39.836Z,81.78
2022-10-23T04:49:07.611Z,81.77
2022-10-23T04:51:35.383Z,81.79
2022-10-23T04:54:03.139Z,81.86
2022-10-23T04:56:31.087Z,81.74
2022-10-23T04:58:58.825Z,81.81
2022-10-23T05:01:26.785Z,81.71
2022-10-23T05:03:56.752Z,81.58
2022-10-23T05:06:24.492Z,81.51
2022-10-23T05:08:52.329Z,81.57
2022-10-23T05:11:20.240Z,81.67
2022-10-23T05:13:48.026Z,81.43
2022-10-23T05:16:30.439Z,81.40
2022-10-23T05:18:59.907Z,81.44
2022-10-23T05:21:29.972Z,81.47
2022-10-23T05:23:57.729Z,81.41
2022-10-23T05:26:25.569Z,81.19
2022-10-23T05:28:53.415Z,81.12
2022-10-23T05:31:23.112Z,81.32
2022-10-23T05:33:52.648Z,81.49
2022-10-23T05:36:22.004Z,81.59
2022-10-23T05:38:49.952Z,81.74
2022-10-23T05:41:17.992Z,81.71
2022-10-23T05:43:46.318Z,81.91
2022-10-23T05:46:14.266Z,81.66
2022-10-23T05:48:42.113Z,81.57
2022-10-23T05:51:11.797Z,81.58
2022-10-23T05:53:41.795Z,81.81
2022-10-23T05:56:10.442Z,81.77
2022-10-23T05:58:38.336Z,81.69
2022-10-23T06:01:09.001Z,81.61
2022-10-23T06:03:37.848Z,81.77
2022-10-23T06:06:06.936Z,81.87
2022-10-23T06:08:35.168Z,81.89
2022-10-23T06:11:10.936Z,81.90
2022-10-23T06:13:39.194Z,82.00
2022-10-23T06:16:11.087Z,82.13
2022-10-23T06:18:39.505Z,82.15
2022-10-23T06:21:08.043Z,81.93
2022-10-23T06:23:37.626Z,81.91
2022-10-23T06:26:06.794Z,81.96
2022-10-23T06:28:34.620Z,82.02
2022-10-23T06:31:11.420Z,81.81
2022-10-23T06:33:39.849Z,81.50
2022-10-23T06:36:10.424Z,81.50
2022-10-23T06:38:40.640Z,81.36
2022-10-23T06:41:14.131Z,81.39
2022-10-23T06:43:42.316Z,81.39
2022-10-23T06:46:10.928Z,81.13
2022-10-23T06:48:38.740Z,81.03
2022-10-23T06:51:08.999Z,80.53
2022-10-23T06:53:38.494Z,80.55
2022-10-23T06:56:07.901Z,80.38
2022-10-23T06:58:37.771Z,80.21
2022-10-23T07:01:09.081Z,79.83
2022-10-23T07:03:37.059Z,79.73
2022-10-23T07:06:06.744Z,79.62
2022-10-23T07:08:34.936Z,79.28
2022-10-23T07:11:04.849Z,79.45
2022-10-23T07:13:34.491Z,79.55
2022-10-23T07:16:10.881Z,79.28
2022-10-23T07:18:38.652Z,79.25
2022-10-23T07:21:06.462Z,78.74
2022-10-23T07:23:34.470Z,78.71
2022-10-23T07:26:10.073Z,78.33
2022-10-23T07:28:37.908Z,78.44
2022-10-23T07:31:05.626Z,78.20
2022-10-23T07:33:34.005Z,77.95
2022-10-23T07:36:04.452Z,77.03
2022-10-23T07:38:32.228Z,76.99
2022-10-23T07:41:00.707Z,76.67
2022-10-23T07:43:28.874Z,75.69
2022-10-23T07:45:56.849Z,75.05
2022-10-23T07:48:27.198Z,74.50
2022-10-23T07:51:00.959Z,74.79
2022-10-23T07:53:28.768Z,74.52
2022-10-23T07:55:59.711Z,74.58
2022-10-23T07:58:28.664Z,75.00
2022-10-23T08:01:02.587Z,75.07
2022-10-23T08:03:32.609Z,74.95
2022-10-23T08:06:00.659Z,75.16
2022-10-23T08:08:28.726Z,75.22
2022-10-23T08:10:56.498Z,74.85
2022-10-23T08:13:24.291Z,74.29
2022-10-23T08:15:53.321Z,74.17
2022-10-23T08:18:21.094Z,74.46
2022-10-23T08:20:49.076Z,74.45
2022-10-23T08:23:18.527Z,73.99
2022-10-23T08:25:47.120Z,73.90
2022-10-23T08:28:16.589Z,73.75
2022-10-23T08:30:44.627Z,73.93
2022-10-23T08:33:12.476Z,73.23
2022-10-23T08:35:40.219Z,72.97
2022-10-23T08:38:08.088Z,73.01
2022-10-23T08:40:36.764Z,72.45
2022-10-23T08:43:10.469Z,72.64
2022-10-23T08:45:42.593Z,72.39
2022-10-23T08:48:20.659Z,71.93
2022-10-23T08:50:59.368Z,71.98
2022-10-23T08:53:29.677Z,71.66
2022-10-23T08:56:20.537Z,71.42
2022-10-23T08:59:05.412Z,71.16
2022-10-23T09:01:43.521Z,71.63
2022-10-23T09:04:15.731Z,71.21
2022-10-23T09:06:52.512Z,71.43
2022-10-23T09:09:47.008Z,70.99
2022-10-23T09:12:17.987Z,71.20
2022-10-23T09:14:54.986Z,70.76
2022-10-23T09:17:29.551Z,70.65
2022-10-23T09:20:16.392Z,70.33
2022-10-23T09:22:45.311Z,69.82
2022-10-23T09:25:36.764Z,69.50
2022-10-23T09:28:05.756Z,69.78
2022-10-23T09:30:35.304Z,69.63
2022-10-23T09:33:23.598Z,69.50
2022-10-23T09:36:07.150Z,69.67
2022-10-23T09:38:36.180Z,69.82
2022-10-23T09:41:13.875Z,70.00
2022-10-23T09:43:41.641Z,69.49
2022-10-23T09:46:10.785Z,69.22
2022-10-23T09:48:40.181Z,68.60
2022-10-23T09:51:19.927Z,68.19
2022-10-23T09:53:55.392Z,67.72
2022-10-23T09:56:40.893Z,67.47
2022-10-23T09:59:11.694Z,66.86
2022-10-23T10:01:48.723Z,66.00
2022-10-23T10:04:16.823Z,65.80
2022-10-23T10:06:45.095Z,65.73
2022-10-23T10:09:15.577Z,65.56
2022-10-23T10:11:49.862Z,65.22
2022-10-23T10:14:41.571Z,64.84
2022-10-23T10:17:37.293Z,64.55
2022-10-23T10:20:24.105Z,64.48
2022-10-23T10:23:00.823Z,64.27
2022-10-23T10:25:52.088Z,64.07
2022-10-23T10:28:53.804Z,63.22
2022-10-23T10:31:50.590Z,63.02
2022-10-23T10:34:30.278Z,62.72
2022-10-23T10:37:13.961Z,62.67
2022-10-23T10:39:57.953Z,62.64
2022-10-23T10:42:31.621Z,63.14
2022-10-23T10:45:19.873Z,63.13
2022-10-23T10:48:18.749Z,62.74
2022-10-23T10:50:56.268Z,62.16
2022-10-23T10:53:55.387Z,62.31
2022-10-23T10:56:28.056Z,62.40
2022-10-23T10:59:00.420Z,62.63
2022-10-23T11:01:54.521Z,62.78
2022-10-23T11:04:31.878Z,61.85
2022-10-23T11:07:06.602Z,61.58
2022-10-23T11:09:34.478Z,61.74
2022-10-23T11:12:02.268Z,61.72
2022-10-23T11:14:35.879Z,61.57
2022-10-23T11:17:25.937Z,61.15
2022-10-23T11:20:02.801Z,60.76
2022-10-23T11:22:38.317Z,61.26
2022-10-23T11:25:35.513Z,60.80
2022-10-23T11:28:13.316Z,60.94
2022-10-23T11:30:59.885Z,60.72
2022-10-23T11:33:44.662Z,61.58
2022-10-23T11:36:50.672Z,61.63
2022-10-23T11:39:23.007Z,61.55
2022-10-23T11:41:57.703Z,61.65
2022-10-23T11:44:34.853Z,61.79
2022-10-23T11:47:05.762Z,62.09
2022-10-23T11:49:33.460Z,62.52
2022-10-23T11:52:22.320Z,62.63
2022-10-23T11:55:17.138Z,63.12
2022-10-23T11:58:05.269Z,62.87
2022-10-23T12:00:38.837Z,63.00
2022-10-23T12:03:15.867Z,62.32
2022-10-23T12:05:45.647Z,62.12
2022-10-23T12:08:26.954Z,61.16
2022-10-23T12:10:55.510Z,61.43
2022-10-23T12:13:46.044Z,60.78
2022-10-23T12:16:14.027Z,60.16
2022-10-23T12:19:20.158Z,60.70
2022-10-23T12:21:51.854Z,59.98
2022-10-23T12:24:59.678Z,59.96
2022-10-23T12:28:17.170Z,60.56
2022-10-23T12:31:00.939Z,60.13
2022-10-23T12:33:47.029Z,60.65
2022-10-23T12:36:26.710Z,60.26
2022-10-23T12:38:58.523Z,59.93
2022-10-23T12:41:28.720Z,59.93
2022-10-23T12:44:00.159Z,60.08
2022-10-23T12:46:39.428Z,59.32
2022-10-23T12:49:20.529Z,59.12
2022-10-23T12:52:00.691Z,59.21
2022-10-23T12:54:31.830Z,59.28
2022-10-23T12:56:59.816Z,59.00
2022-10-23T12:59:36.801Z,59.27
2022-10-23T13:02:34.385Z,59.54
2022-10-23T13:05:06.965Z,59.92
2022-10-23T13:07:41.057Z,60.11
2022-10-23T13:10:15.460Z,60.12
2022-10-23T13:12:54.762Z,59.90
2022-10-23T13:15:23.803Z,59.51
2022-10-23T13:17:57.605Z,59.50
2022-10-23T13:20:28.134Z,59.63
2022-10-23T13:23:08.088Z,59.20
2022-10-23T13:25:38.183Z,59.71
2022-10-23T13:28:09.041Z,59.83
2022-10-23T13:30:42.813Z,60.21
2022-10-23T13:33:20.055Z,60.49
2022-10-23T13:35:58.931Z,60.34
2022-10-23T13:38:32.513Z,60.62
2022-10-23T13:41:01.069Z,60.62
2022-10-23T13:43:30.841Z,60.47
2022-10-23T13:46:00.217Z,60.50
2022-10-23T13:48:28.770Z,60.71
2022-10-23T13:51:27.733Z,60.81
2022-10-23T13:53:57.203Z,60.76
2022-10-23T13:56:27.020Z,60.90
2022-10-23T13:58:55.049Z,61.29
2022-10-23T14:01:29.637Z,61.08
2022-10-23T14:03:58.251Z,61.19
2022-10-23T14:06:26.178Z,61.17
2022-10-23T14:08:54.154Z,61.36
2022-10-23T14:11:22.363Z,61.41
2022-10-23T14:13:50.526Z,61.54
2022-10-23T14:16:19.763Z,62.11
2022-10-23T14:18:47.993Z,62.19
2022-10-23T14:21:20.154Z,62.31
2022-10-23T14:23:49.056Z,62.54
2022-10-23T14:26:20.459Z,62.80
2022-10-23T14:28:48.972Z,63.08
2022-10-23T14:31:17.890Z,62.99
2022-10-23T14:33:46.697Z,63.14
2022-10-23T14:36:14.564Z,62.78
2022-10-23T14:38:42.523Z,63.03
2022-10-23T14:41:15.994Z,63.14
2022-10-23T14:43:44.351Z,63.10
2022-10-23T14:46:18.088Z,63.34
2022-10-23T14:48:47.199Z,63.52
2022-10-23T14:51:23.329Z,63.61
2022-10-23T14:54:02.287Z,63.70
2022-10-23T14:56:32.434Z,64.12
2022-10-23T14:59:03.810Z,64.34
2022-10-23T15:01:34.171Z,64.47
2022-10-23T15:04:02.452Z,64.81
2022-10-23T15:06:30.379Z,65.23
2022-10-23T15:08:58.118Z,65.66
2022-10-23T15:11:26.811Z,66.14
2022-10-23T15:13:55.665Z,66.49
2022-10-23T15:16:23.565Z,66.67
2022-10-23T15:18:52.021Z,66.72
2022-10-23T15:21:20.133Z,67.00
2022-10-23T15:23:48.681Z,67.22
2022-10-23T15:26:22.988Z,67.52
2022-10-23T15:28:59.177Z,67.74
2022-10-23T15:31:30.133Z,68.05
2022-10-23T15:33:58.366Z,68.01
2022-10-23T15:36:26.766Z,68.10
2022-10-23T15:38:54.531Z,68.48
2022-10-23T15:41:28.612Z,68.80
2022-10-23T15:43:56.496Z,68.99
2022-10-23T15:46:24.553Z,69.27
2022-10-23T15:48:52.732Z,69.68
2022-10-23T15:51:21.035Z,69.86
2022-10-23T15:53:48.979Z,69.84
2022-10-23T15:56:16.953Z,70.20
2022-10-23T15:58:44.777Z,70.48
2022-10-23T16:01:12.632Z,70.42
2022-10-23T16:03:40.503Z,70.57
2022-10-23T16:06:11.319Z,70.94
2022-10-23T16:08:39.947Z,71.06
2022-10-23T16:11:23.133Z,70.98
2022-10-23T16:13:51.077Z,71.06
2022-10-23T16:16:19.204Z,71.31
2022-10-23T16:18:47.151Z,71.17
2022-10-23T16:21:21.804Z,71.50
2022-10-23T16:23:50.478Z,71.68
2022-10-23T16:26:19.169Z,71.50
2022-10-23T16:28:47.642Z,71.38
2022-10-23T16:31:20.319Z,71.84
2022-10-23T16:33:49.061Z,71.88
2022-10-23T16:36:17.609Z,71.98
2022-10-23T16:38:45.474Z,72.21
2022-10-23T16:41:13.323Z,72.39
2022-10-23T16:43:41.188Z,72.66
2022-10-23T16:46:14.221Z,72.63
2022-10-23T16:48:42.823Z,72.66
2022-10-23T16:51:14.088Z,72.76
2022-10-23T16:53:42.916Z,72.78
2022-10-23T16:56:13.197Z,72.82
2022-10-23T16:58:41.081Z,72.84
2022-10-23T17:01:12.160Z,72.93
2022-10-23T17:03:43.647Z,73.24
2022-10-23T17:06:14.071Z,73.47
2022-10-23T17:08:42.524Z,73.52
2022-10-23T17:11:13.798Z,73.48
2022-10-23T17:13:47.097Z,73.77
2022-10-23T17:16:18.612Z,74.03
2022-10-23T17:18:47.056Z,74.18
2022-10-23T17:21:16.597Z,74.46
2022-10-23T17:23:44.624Z,74.65
2022-10-23T17:26:14.968Z,74.66
2022-10-23T17:28:43.420Z,74.69
2022-10-23T17:31:23.149Z,74.84
2022-10-23T17:33:54.678Z,74.99
2022-10-23T17:36:22.560Z,75.17
2022-10-23T17:38:50.593Z,75.21
2022-10-23T17:41:20.916Z,75.21
2022-10-23T17:43:49.103Z,75.25
2022-10-23T17:46:18.411Z,75.37
2022-10-23T17:48:49.836Z,75.62
2022-10-23T17:51:20.926Z,75.51
2022-10-23T17:53:51.457Z,75.37
2022-10-23T17:56:22.660Z,75.73
2022-10-23T17:58:55.423Z,75.99
2022-10-23T18:01:26.139Z,75.85
2022-10-23T18:03:55.562Z,75.49
2022-10-23T18:06:29.526Z,75.39
2022-10-23T18:08:58.295Z,75.66
2022-10-23T18:11:29.758Z,76.17
2022-10-23T18:16:31.287Z,76.63
2022-10-23T18:19:00.808Z,76.93
2022-10-23T18:21:28.947Z,76.93
2022-10-23T18:24:00.219Z,76.70
2022-10-23T18:26:30.563Z,76.67
2022-10-23T18:28:59.505Z,76.66
2022-10-23T18:31:30.212Z,76.93
2022-10-23T18:34:01.702Z,77.11
2022-10-23T18:36:32.885Z,76.95
2022-10-23T18:39:01.516Z,77.13
2022-10-23T18:41:34.492Z,77.24
2022-10-23T18:44:02.862Z,77.29
2022-10-23T18:46:30.663Z,77.51
2022-10-23T18:48:59.061Z,77.37
2022-10-23T18:51:30.287Z,77.61
2022-10-23T18:54:01.054Z,77.72
2022-10-23T18:56:29.326Z,77.84
2022-10-23T18:58:59.341Z,77.73
2022-10-23T19:01:28.797Z,77.91
2022-10-23T19:03:58.177Z,78.02
2022-10-23T19:06:26.408Z,77.95
2022-10-23T19:08:54.536Z,78.13
2022-10-23T19:11:24.407Z,78.07
2022-10-23T19:13:52.478Z,78.17
2022-10-23T19:16:20.132Z,78.34
2022-10-23T19:18:55.533Z,78.49
2022-10-23T19:21:31.070Z,78.41
2022-10-23T19:24:03.408Z,78.59
2022-10-23T19:26:32.509Z,78.65
2022-10-23T19:29:00.704Z,78.47
2022-10-23T19:31:28.669Z,78.67
2022-10-23T19:33:56.432Z,78.74
2022-10-23T19:36:24.262Z,79.05
2022-10-23T19:38:52.094Z,79.29
2022-10-23T19:41:19.905Z,79.19
2022-10-23T19:43:47.669Z,79.12
2022-10-23T19:46:16.271Z,79.11
2022-10-23T19:48:45.007Z,79.38
2022-10-23T19:51:13.589Z,79.73
2022-10-23T19:53:42.104Z,79.56
2022-10-23T19:56:12.064Z,79.28
2022-10-23T19:58:40.510Z,79.61
2022-10-23T20:01:16.867Z,79.80
2022-10-23T20:03:45.907Z,79.87
2022-10-23T20:06:17.196Z,79.71
2022-10-23T20:08:45.355Z,79.92
2022-10-23T20:11:25.273Z,80.31
2022-10-23T20:13:53.141Z,80.45
2022-10-23T20:16:28.750Z,80.43
2022-10-23T20:18:57.698Z,80.61
2022-10-23T20:21:25.792Z,80.52
2022-10-23T20:23:53.645Z,80.42
2022-10-23T20:26:22.010Z,80.28
2022-10-23T20:28:53.693Z,80.38
2022-10-23T20:31:23.649Z,80.47
2022-10-23T20:33:52.251Z,80.44
2022-10-23T20:36:28.619Z,80.33
2022-10-23T20:38:58.292Z,80.11
2022-10-23T20:41:28.538Z,79.87
2022-10-23T20:43:56.913Z,80.40
2022-10-23T20:46:25.257Z,80.41
2022-10-23T20:48:53.646Z,80.37
2022-10-23T20:51:23.730Z,80.52
2022-10-23T20:53:53.258Z,80.62
2022-10-23T20:56:29.955Z,80.59
2022-10-23T20:59:11.405Z,80.45
2022-10-23T21:01:44.983Z,80.35
2022-10-23T21:04:14.057Z,80.35
2022-10-23T21:06:57.749Z,80.29
2022-10-23T21:09:30.895Z,80.18
2022-10-23T21:11:58.734Z,80.43
2022-10-23T21:14:27.296Z,80.56
2022-10-23T21:16:55.120Z,80.59
2022-10-23T21:19:22.964Z,80.66
2022-10-23T21:21:50.880Z,80.78
2022-10-23T21:24:18.764Z,80.77
2022-10-23T21:26:46.808Z,80.67
2022-10-23T21:29:19.424Z,80.72
2022-10-23T21:31:52.928Z,80.63
2022-10-23T21:34:20.836Z,80.61
2022-10-23T21:37:11.290Z,80.35
2022-10-23T21:39:36.575Z,80.49
2022-10-23T21:42:04.852Z,80.85
2022-10-23T21:44:32.782Z,81.16
2022-10-23T21:47:00.651Z,81.31
2022-10-23T21:49:28.512Z,81.70
2022-10-23T21:51:56.453Z,82.09
2022-10-23T21:54:24.289Z,82.56
2022-10-23T21:56:55.692Z,82.63
2022-10-23T21:59:27.840Z,82.83
2022-10-23T22:01:58.099Z,82.74
2022-10-23T22:04:25.910Z,82.49
2022-10-23T22:06:53.742Z,82.37
2022-10-23T22:09:22.362Z,81.85
2022-10-23T22:11:51.327Z,81.47
2022-10-23T22:14:21.073Z,81.34
2022-10-23T22:16:49.296Z,81.39
2022-10-23T22:19:18.371Z,81.16
2022-10-23T22:21:46.772Z,81.50
2022-10-23T22:24:15.697Z,81.50
2022-10-23T22:26:46.659Z,81.77
2022-10-23T22:29:17.479Z,81.80
2022-10-23T22:31:48.872Z,82.22
2022-10-23T22:34:28.620Z,82.31
2022-10-23T22:37:01.778Z,82.39
2022-10-23T22:39:29.579Z,82.51
2022-10-23T22:41:57.416Z,82.87
2022-10-23T22:44:25.299Z,83.44
2022-10-23T22:46:53.222Z,83.07
2022-10-23T22:49:21.024Z,82.91
2022-10-23T22:51:48.968Z,82.67
2022-10-23T22:54:16.675Z,82.59
2022-10-23T22:56:44.507Z,82.61
2022-10-23T22:59:12.281Z,82.53
2022-10-23T23:01:43.919Z,82.79
2022-10-23T23:04:36.869Z,82.60
2022-10-23T23:07:00.733Z,82.09
2022-10-23T23:09:28.589Z,81.81
2022-10-23T23:11:56.362Z,82.04
2022-10-23T23:14:24.649Z,82.11
2022-10-23T23:16:53.301Z,82.23
2022-10-23T23:19:23.012Z,82.45
2022-10-23T23:21:50.973Z,82.78
2022-10-23T23:24:18.715Z,83.20
2022-10-23T23:26:46.506Z,83.30
2022-10-23T23:29:14.250Z,83.17
2022-10-23T23:31:42.269Z,83.06
2022-10-23T23:34:10.530Z,82.63
2022-10-23T23:36:38.337Z,82.08
2022-10-23T23:39:06.178Z,81.79
2022-10-23T23:41:34.205Z,81.55
2022-10-23T23:44:02.004Z,81.39
2022-10-23T23:46:30.001Z,81.37
2022-10-23T23:48:58.055Z,81.55
2022-10-23T23:51:26.342Z,81.72
2022-10-23T23:53:54.562Z,81.92
2022-10-23T23:56:22.637Z,82.05
2022-10-23T23:58:50.522Z,82.09
